| time (UTC) | temp C | wind direction | speed KPH | gust KPH | rain 1hr cm | rain 24hr cm | rain mn cm | humidity % | barometer mb |
| 20260509123959 | 20 | 294 | 1.6 | 9.7 | 0.00 | 0.18 | 0.00 | 89 | 1010.9 |
| 20260509123002 | 20 | 346 | 3.2 | 12.9 | 0.00 | 0.18 | 0.00 | 89 | 1010.9 |
| 20260509122500 | 20 | 291 | 0.0 | 4.8 | 0.00 | 0.18 | 0.00 | 90 | 1010.8 |
| 20260509122000 | 20 | 298 | 0.0 | 4.8 | 0.00 | 0.18 | 0.00 | 90 | 1010.8 |
| 20260509121502 | 20 | 292 | 0.0 | 4.8 | 0.00 | 0.18 | 0.00 | 90 | 1010.6 |
| 20260509120459 | 20 | 340 | 0.0 | 0.0 | 0.00 | 0.18 | 0.00 | 91 | 1010.8 |
| 20260509120005 | 20 | 340 | 0.0 | 0.0 | 0.00 | 0.18 | 0.00 | 91 | 1010.6 |
| 20260509115459 | 20 | 340 | 0.0 | 0.0 | 0.00 | 0.18 | 0.00 | 91 | 1010.6 |
| 20260509114959 | 20 | 341 | 0.0 | 6.4 | 0.00 | 0.18 | 0.00 | 91 | 1010.6 |
| 20260509113459 | 20 | 318 | 0.0 | 3.2 | 0.00 | 0.18 | 0.00 | 91 | 1010.3 |
| 20260509113003 | 20 | 318 | 0.0 | 4.8 | 0.00 | 0.18 | 0.00 | 92 | 1010.1 |
| 20260509112459 | 20 | 319 | 0.0 | 4.8 | 0.00 | 0.18 | 0.00 | 92 | 1009.9 |
| 20260509111959 | 20 | 68 | 0.0 | 0.0 | 0.00 | 0.18 | 0.00 | 91 | 1009.8 |
| 20260509111502 | 20 | 68 | 0.0 | 0.0 | 0.00 | 0.18 | 0.00 | 91 | 1009.9 |
| 20260509111000 | 19 | 71 | 0.0 | 0.0 | 0.00 | 0.18 | 0.00 | 91 | 1009.8 |
| 20260509110459 | 19 | 71 | 0.0 | 0.0 | 0.00 | 0.18 | 0.00 | 91 | 1009.6 |
| 20260509110004 | 19 | 82 | 0.0 | 0.0 | 0.00 | 0.18 | 0.00 | 90 | 1009.6 |
| 20260509105459 | 20 | 82 | 0.0 | 0.0 | 0.00 | 0.20 | 0.00 | 90 | 1009.5 |
| 20260509105000 | 20 | 82 | 0.0 | 0.0 | 0.00 | 0.20 | 0.00 | 90 | 1009.3 |
| 20260509104502 | 20 | 82 | 0.0 | 0.0 | 0.00 | 0.20 | 0.00 | 90 | 1009.2 |
| 20260509103959 | 20 | 82 | 0.0 | 0.0 | 0.00 | 0.20 | 0.00 | 90 | 1008.9 |
| 20260509103500 | 20 | 82 | 0.0 | 0.0 | 0.00 | 0.20 | 0.00 | 89 | 1008.9 |
| 20260509103004 | 20 | 82 | 0.0 | 0.0 | 0.00 | 0.20 | 0.00 | 89 | 1008.9 |
| 20260509101959 | 20 | 82 | 0.0 | 0.0 | 0.00 | 0.20 | 0.00 | 88 | 1008.9 |
| 20260509101503 | 20 | 82 | 0.0 | 0.0 | 0.00 | 0.20 | 0.00 | 88 | 1008.8 |
| 20260509101000 | 21 | 82 | 0.0 | 0.0 | 0.00 | 0.20 | 0.00 | 88 | 1008.8 |
| 20260509100005 | 21 | 82 | 0.0 | 0.0 | 0.00 | 0.20 | 0.00 | 87 | 1008.9 |
| 20260509095458 | 21 | 82 | 0.0 | 1.6 | 0.00 | 0.20 | 0.00 | 87 | 1008.7 |
| 20260509094958 | 21 | 76 | 0.0 | 6.4 | 0.00 | 0.20 | 0.00 | 87 | 1008.5 |
| 20260509094501 | 21 | 76 | 1.6 | 11.3 | 0.00 | 0.20 | 0.00 | 87 | 1008.4 |
| 20260509094000 | 21 | 98 | 0.0 | 6.4 | 0.00 | 0.20 | 0.00 | 87 | 1008.4 |
| 20260509093002 | 21 | 75 | 0.0 | 6.4 | 0.00 | 0.20 | 0.00 | 86 | 1008.2 |
| 20260509092458 | 21 | 91 | 1.6 | 6.4 | 0.00 | 0.20 | 0.00 | 87 | 1008.2 |
| 20260509091501 | 21 | 77 | 0.0 | 3.2 | 0.00 | 0.20 | 0.00 | 86 | 1008.2 |
| 20260509090959 | 21 | 84 | 0.0 | 3.2 | 0.00 | 0.20 | 0.00 | 86 | 1008.4 |
| 20260509090459 | 21 | 69 | 0.0 | 8.0 | 0.00 | 0.20 | 0.00 | 86 | 1008.4 |
| 20260509090004 | 22 | 69 | 1.6 | 8.0 | 0.00 | 0.20 | 0.00 | 86 | 1008.4 |
| 20260509085458 | 22 | 61 | 0.0 | 4.8 | 0.00 | 0.23 | 0.00 | 86 | 1008.3 |
| 20260509084959 | 22 | 23 | 0.0 | 8.0 | 0.00 | 0.23 | 0.00 | 85 | 1008.2 |
| 20260509084502 | 22 | 34 | 1.6 | 17.7 | 0.00 | 0.23 | 0.00 | 84 | 1008.0 |
| 20260509083958 | 22 | 37 | 3.2 | 19.3 | 0.00 | 0.23 | 0.00 | 84 | 1007.9 |
| 20260509083503 | 22 | 331 | 6.4 | 14.5 | 0.00 | 0.23 | 0.00 | 84 | 1007.8 |
| 20260509083002 | 22 | 217 | 0.0 | 9.7 | 0.00 | 0.23 | 0.00 | 83 | 1007.0 |
| 20260509082459 | 22 | 212 | 0.0 | 11.3 | 0.00 | 0.23 | 0.00 | 83 | 1006.6 |
| 20260509081958 | 22 | 209 | 1.6 | 11.3 | 0.00 | 0.23 | 0.00 | 83 | 1006.7 |
| 20260509081503 | 22 | 203 | 1.6 | 16.1 | 0.00 | 0.23 | 0.00 | 83 | 1006.8 |
| 20260509080958 | 22 | 246 | 1.6 | 16.1 | 0.00 | 0.23 | 0.00 | 84 | 1006.8 |
| 20260509080458 | 22 | 120 | 1.6 | 17.7 | 0.00 | 0.23 | 0.00 | 84 | 1007.0 |
| 20260509080004 | 22 | 220 | 1.6 | 17.7 | 0.00 | 0.23 | 0.00 | 84 | 1007.1 |
| 20260509074958 | 22 | 179 | 4.8 | 19.3 | 0.00 | 0.23 | 0.00 | 84 | 1007.6 |
| 20260509074501 | 22 | 208 | 9.7 | 22.5 | 0.00 | 0.23 | 0.00 | 84 | 1007.9 |
| 20260509073958 | 22 | 242 | 1.6 | 19.3 | 0.00 | 0.23 | 0.00 | 84 | 1008.4 |
| 20260509073458 | 22 | 237 | 9.7 | 25.7 | 0.00 | 0.23 | 0.00 | 84 | 1008.6 |
| 20260509073001 | 22 | 240 | 9.7 | 25.7 | 0.00 | 0.23 | 0.00 | 84 | 1009.0 |
| 20260509072458 | 21 | 194 | 1.6 | 19.3 | 0.00 | 0.23 | 0.00 | 85 | 1008.9 |
| 20260509071958 | 21 | 190 | 6.4 | 25.7 | 0.00 | 0.23 | 0.00 | 85 | 1009.0 |
| 20260509071501 | 21 | 241 | 6.4 | 25.7 | 0.00 | 0.23 | 0.00 | 85 | 1009.3 |
| 20260509070958 | 21 | 217 | 4.8 | 19.3 | 0.00 | 0.23 | 0.00 | 86 | 1009.3 |
| 20260509070003 | 21 | 259 | 6.4 | 19.3 | 0.00 | 0.23 | 0.00 | 86 | 1009.6 |
| 20260509065458 | 21 | 237 | 3.2 | 17.7 | 0.00 | 0.23 | 0.00 | 86 | 1009.6 |
| 20260509064957 | 21 | 242 | 4.8 | 19.3 | 0.00 | 0.23 | 0.00 | 85 | 1009.8 |
| 20260509064507 | 21 | 242 | 8.0 | 17.7 | 0.00 | 0.23 | 0.00 | 85 | 1009.8 |
| 20260509063959 | 21 | 236 | 4.8 | 16.1 | 0.00 | 0.23 | 0.00 | 85 | 1010.0 |
| 20260509063458 | 21 | 232 | 3.2 | 11.3 | 0.00 | 0.23 | 0.00 | 85 | 1010.3 |
| 20260509063001 | 21 | 222 | 3.2 | 14.5 | 0.00 | 0.23 | 0.00 | 84 | 1010.4 |
| 20260509061958 | 21 | 253 | 1.6 | 11.3 | 0.00 | 0.23 | 0.00 | 84 | 1010.5 |
| 20260509060958 | 21 | 252 | 4.8 | 12.9 | 0.00 | 0.23 | 0.00 | 84 | 1010.4 |
| 20260509060458 | 21 | 248 | 1.6 | 12.9 | 0.00 | 0.23 | 0.00 | 84 | 1010.4 |
| 20260509060009 | 21 | 232 | 3.2 | 11.3 | 0.00 | 0.23 | 0.00 | 84 | 1010.3 |
| 20260509055504 | 21 | 227 | 4.8 | 12.9 | 0.00 | 0.23 | 0.00 | 84 | 1010.2 |
| 20260509055004 | 21 | 236 | 1.6 | 8.0 | 0.00 | 0.23 | 0.00 | 85 | 1010.2 |
| 20260509054507 | 21 | 267 | 1.6 | 4.8 | 0.00 | 0.23 | 0.00 | 84 | 1010.2 |
| 20260509054004 | 21 | 267 | 0.0 | 3.2 | 0.00 | 0.23 | 0.00 | 84 | 1010.4 |
| 20260509053505 | 21 | 267 | 0.0 | 3.2 | 0.00 | 0.23 | 0.00 | 83 | 1010.4 |
| 20260509053008 | 21 | 267 | 0.0 | 0.0 | 0.00 | 0.23 | 0.00 | 83 | 1010.4 |
| 20260509052505 | 21 | 267 | 0.0 | 0.0 | 0.00 | 0.23 | 0.00 | 82 | 1010.7 |
| 20260509052004 | 21 | 267 | 0.0 | 0.0 | 0.00 | 0.23 | 0.00 | 82 | 1010.8 |
| 20260509051508 | 22 | 267 | 0.0 | 0.0 | 0.00 | 0.23 | 0.00 | 82 | 1011.1 |
| 20260509051005 | 22 | 267 | 0.0 | 1.6 | 0.00 | 0.23 | 0.00 | 82 | 1011.5 |
| 20260509050503 | 22 | 267 | 0.0 | 6.4 | 0.00 | 0.23 | 0.00 | 81 | 1011.3 |
| 20260509050011 | 22 | 327 | 1.6 | 6.4 | 0.00 | 0.23 | 0.00 | 82 | 1011.9 |
| 20260509045503 | 21 | 326 | 0.0 | 8.0 | 0.00 | 0.23 | 0.23 | 82 | 1011.9 |
| 20260509045003 | 21 | 324 | 1.6 | 9.7 | 0.00 | 0.23 | 0.23 | 82 | 1012.1 |
| 20260509044506 | 21 | 350 | 1.6 | 9.7 | 0.00 | 0.23 | 0.23 | 82 | 1012.0 |
| 20260509044003 | 21 | 241 | 0.0 | 3.2 | 0.00 | 0.23 | 0.23 | 81 | 1011.2 |
| 20260509043503 | 22 | 216 | 0.0 | 0.0 | 0.00 | 0.23 | 0.23 | 81 | 1010.4 |
| 20260509043006 | 22 | 216 | 0.0 | 3.2 | 0.00 | 0.23 | 0.23 | 81 | 1010.3 |
| 20260509042502 | 22 | 216 | 0.0 | 3.2 | 0.00 | 0.23 | 0.23 | 81 | 1010.3 |
| 20260509042003 | 22 | 215 | 0.0 | 0.0 | 0.00 | 0.23 | 0.23 | 80 | 1010.4 |
| 20260509041003 | 22 | 216 | 0.0 | 0.0 | 0.00 | 0.23 | 0.23 | 80 | 1010.5 |
| 20260509040504 | 22 | 216 | 0.0 | 1.6 | 0.00 | 0.23 | 0.23 | 80 | 1010.6 |
| 20260509040008 | 22 | 216 | 0.0 | 1.6 | 0.00 | 0.23 | 0.23 | 80 | 1010.5 |
| 20260509035503 | 22 | 216 | 0.0 | 1.6 | 0.00 | 0.23 | 0.23 | 80 | 1010.0 |
| 20260509035002 | 22 | 216 | 0.0 | 4.8 | 0.00 | 0.23 | 0.23 | 81 | 1009.9 |
| 20260509034004 | 22 | 125 | 0.0 | 3.2 | 0.00 | 0.23 | 0.23 | 80 | 1009.6 |
| 20260509033504 | 22 | 125 | 0.0 | 6.4 | 0.00 | 0.23 | 0.23 | 80 | 1009.6 |
| 20260509033007 | 22 | 200 | 0.0 | 6.4 | 0.00 | 0.23 | 0.23 | 80 | 1009.4 |
| 20260509032503 | 22 | 178 | 1.6 | 6.4 | 0.00 | 0.23 | 0.23 | 80 | 1009.4 |
| 20260509032003 | 22 | 115 | 0.0 | 1.6 | 0.00 | 0.23 | 0.23 | 80 | 1010.0 |
| 20260509031506 | 22 | 28 | 0.0 | 0.0 | 0.00 | 0.23 | 0.23 | 80 | 1010.6 |
| 20260509031003 | 22 | 28 | 0.0 | 3.2 | 0.00 | 0.23 | 0.23 | 81 | 1010.9 |
| 20260509030503 | 22 | 42 | 0.0 | 3.2 | 0.00 | 0.23 | 0.23 | 81 | 1011.0 |
| 20260509025502 | 22 | 142 | 0.0 | 1.6 | 0.00 | 0.23 | 0.23 | 80 | 1010.6 |
| 20260509024002 | 22 | 149 | 0.0 | 0.0 | 0.00 | 0.23 | 0.23 | 79 | 1009.8 |
| 20260509023503 | 22 | 149 | 0.0 | 0.0 | 0.00 | 0.23 | 0.23 | 79 | 1009.7 |
| 20260509023006 | 22 | 149 | 0.0 | 0.0 | 0.00 | 0.23 | 0.23 | 79 | 1009.6 |
| 20260509022502 | 22 | 149 | 0.0 | 1.6 | 0.00 | 0.23 | 0.23 | 79 | 1009.3 |
| 20260509022003 | 22 | 146 | 0.0 | 6.4 | 0.00 | 0.23 | 0.23 | 79 | 1008.9 |
| 20260509021506 | 22 | 146 | 0.0 | 6.4 | 0.00 | 0.23 | 0.23 | 78 | 1008.8 |
| 20260509021003 | 22 | 134 | 0.0 | 4.8 | 0.00 | 0.23 | 0.23 | 78 | 1008.5 |
| 20260509020008 | 22 | 157 | 0.0 | 4.8 | 0.00 | 0.23 | 0.23 | 78 | 1008.3 |
| 20260509015503 | 22 | 170 | 0.0 | 4.8 | 0.00 | 0.23 | 0.23 | 78 | 1008.4 |
| 20260509014506 | 22 | 153 | 0.0 | 8.0 | 0.00 | 0.23 | 0.23 | 77 | 1008.5 |
| 20260509014002 | 22 | 218 | 0.0 | 8.0 | 0.00 | 0.23 | 0.23 | 77 | 1008.3 |
| 20260509013006 | 22 | 171 | 0.0 | 1.6 | 0.00 | 0.23 | 0.23 | 76 | 1008.4 |
| 20260509012502 | 23 | 171 | 0.0 | 4.8 | 0.00 | 0.23 | 0.23 | 75 | 1008.6 |
| 20260509012002 | 23 | 170 | 0.0 | 8.0 | 0.00 | 0.23 | 0.23 | 75 | 1008.7 |
| 20260509011506 | 23 | 180 | 0.0 | 8.0 | 0.00 | 0.23 | 0.23 | 74 | 1008.8 |
| 20260509010502 | 23 | 246 | 3.2 | 12.9 | 0.00 | 0.23 | 0.23 | 74 | 1008.8 |
| 20260509010008 | 23 | 200 | 1.6 | 9.7 | 0.00 | 0.23 | 0.23 | 73 | 1008.8 |
| 20260509005503 | 23 | 211 | 3.2 | 9.7 | 0.00 | 0.23 | 0.23 | 73 | 1008.7 |
| 20260509005002 | 23 | 186 | 0.0 | 4.8 | 0.00 | 0.23 | 0.23 | 73 | 1008.7 |
| 20260509003006 | 23 | 183 | 1.6 | 12.9 | 0.00 | 0.23 | 0.23 | 71 | 1008.2 |
| 20260509002503 | 24 | 188 | 3.2 | 12.9 | 0.00 | 0.23 | 0.23 | 70 | 1008.2 |
| 20260509002002 | 24 | 153 | 0.0 | 12.9 | 0.00 | 0.23 | 0.23 | 71 | 1008.1 |
| 20260509001003 | 24 | 218 | 4.8 | 14.5 | 0.00 | 0.23 | 0.23 | 70 | 1008.0 |
| 20260509000502 | 24 | 173 | 4.8 | 12.9 | 0.00 | 0.23 | 0.23 | 70 | 1008.1 |
| 20260509000008 | 24 | 226 | 4.8 | 12.9 | 0.00 | 0.23 | 0.23 | 69 | 1008.1 |
| 20260508235501 | 24 | 235 | 1.6 | 12.9 | 0.00 | 0.23 | 0.23 | 69 | 1008.1 |
| 20260508234505 | 24 | 167 | 1.6 | 17.7 | 0.00 | 0.23 | 0.23 | 69 | 1008.3 |
| 20260508234001 | 24 | 91 | 4.8 | 17.7 | 0.00 | 0.23 | 0.23 | 68 | 1008.3 |
| 20260508233005 | 25 | 149 | 1.6 | 14.5 | 0.00 | 0.23 | 0.23 | 68 | 1008.5 |
| 20260508232503 | 25 | 202 | 3.2 | 14.5 | 0.00 | 0.23 | 0.23 | 66 | 1008.5 |
| 20260508232002 | 25 | 211 | 3.2 | 12.9 | 0.00 | 0.23 | 0.23 | 67 | 1008.5 |
| 20260508231505 | 25 | 113 | 3.2 | 16.1 | 0.00 | 0.23 | 0.23 | 67 | 1008.5 |
| 20260508231001 | 25 | 221 | 4.8 | 16.1 | 0.00 | 0.23 | 0.23 | 66 | 1008.4 |
| 20260508230501 | 25 | 133 | 3.2 | 16.1 | 0.00 | 0.23 | 0.23 | 65 | 1008.5 |
| 20260508230007 | 25 | 141 | 3.2 | 17.7 | 0.00 | 0.23 | 0.23 | 66 | 1008.4 |
| 20260508225503 | 25 | 170 | 1.6 | 12.9 | 0.00 | 0.23 | 0.23 | 65 | 1008.4 |
| 20260508225003 | 25 | 86 | 3.2 | 12.9 | 0.00 | 0.23 | 0.23 | 66 | 1008.4 |
| 20260508224506 | 25 | 152 | 1.6 | 12.9 | 0.00 | 0.23 | 0.23 | 65 | 1008.5 |
| 20260508224002 | 25 | 198 | 1.6 | 14.5 | 0.00 | 0.23 | 0.23 | 66 | 1008.5 |
| 20260508223501 | 25 | 140 | 3.2 | 14.5 | 0.00 | 0.23 | 0.23 | 65 | 1008.6 |
| 20260508223004 | 25 | 198 | 3.2 | 12.9 | 0.00 | 0.23 | 0.23 | 66 | 1008.7 |
| 20260508222502 | 25 | 226 | 4.8 | 14.5 | 0.00 | 0.23 | 0.23 | 66 | 1008.7 |
| 20260508222001 | 25 | 215 | 3.2 | 12.9 | 0.00 | 0.23 | 0.23 | 66 | 1008.7 |
| 20260508221505 | 25 | 211 | 3.2 | 14.5 | 0.00 | 0.23 | 0.23 | 66 | 1008.7 |
| 20260508221001 | 25 | 202 | 0.0 | 14.5 | 0.00 | 0.23 | 0.23 | 66 | 1008.8 |
| 20260508220501 | 25 | 175 | 4.8 | 14.5 | 0.00 | 0.23 | 0.23 | 64 | 1008.8 |
| 20260508220007 | 25 | 160 | 3.2 | 12.9 | 0.00 | 0.23 | 0.23 | 65 | 1008.8 |
| 20260508215501 | 25 | 207 | 1.6 | 11.3 | 0.00 | 0.23 | 0.23 | 63 | 1008.8 |
| 20260508215003 | 26 | 214 | 3.2 | 12.9 | 0.00 | 0.23 | 0.23 | 62 | 1008.8 |
| 20260508214505 | 26 | 114 | 1.6 | 14.5 | 0.00 | 0.23 | 0.23 | 62 | 1008.8 |
| 20260508214001 | 26 | 172 | 4.8 | 14.5 | 0.00 | 0.23 | 0.23 | 62 | 1008.8 |
| 20260508213501 | 26 | 141 | 1.6 | 12.9 | 0.00 | 0.23 | 0.23 | 63 | 1008.7 |
| 20260508212502 | 25 | 105 | 1.6 | 14.5 | 0.00 | 0.23 | 0.23 | 63 | 1008.9 |
| 20260508212002 | 25 | 193 | 3.2 | 12.9 | 0.00 | 0.23 | 0.23 | 62 | 1009.0 |
| 20260508211505 | 26 | 132 | 1.6 | 12.9 | 0.00 | 0.23 | 0.23 | 62 | 1008.9 |
| 20260508211002 | 25 | 124 | 1.6 | 9.7 | 0.00 | 0.23 | 0.23 | 63 | 1008.8 |
| 20260508205502 | 25 | 136 | 1.6 | 12.9 | 0.00 | 0.23 | 0.23 | 63 | 1009.1 |
| 20260508204504 | 25 | 180 | 3.2 | 17.7 | 0.00 | 0.23 | 0.23 | 65 | 1009.4 |
| 20260508204001 | 24 | 213 | 4.8 | 17.7 | 0.00 | 0.23 | 0.23 | 66 | 1009.8 |
| 20260508203502 | 24 | 188 | 6.4 | 17.7 | 0.00 | 0.23 | 0.23 | 67 | 1010.3 |
| 20260508203006 | 24 | 182 | 3.2 | 14.5 | 0.00 | 0.23 | 0.23 | 67 | 1010.4 |
| 20260508202501 | 24 | 202 | 3.2 | 14.5 | 0.00 | 0.23 | 0.23 | 68 | 1010.5 |
| 20260508202001 | 23 | 254 | 3.2 | 14.5 | 0.00 | 0.23 | 0.23 | 67 | 1010.6 |
| 20260508201001 | 25 | 249 | 4.8 | 12.9 | 0.00 | 0.23 | 0.23 | 66 | 1010.6 |
| 20260508200501 | 25 | 194 | 1.6 | 16.1 | 0.00 | 0.23 | 0.23 | 65 | 1010.6 |
| 20260508200009 | 25 | 217 | 3.2 | 16.1 | 0.00 | 0.23 | 0.23 | 65 | 1010.7 |
| 20260508195505 | 25 | 212 | 6.4 | 16.1 | 0.00 | 0.23 | 0.23 | 65 | 1010.7 |
| 20260508195001 | 25 | 159 | 4.8 | 16.1 | 0.00 | 0.23 | 0.23 | 66 | 1010.8 |
| 20260508194506 | 24 | 205 | 3.2 | 12.9 | 0.00 | 0.23 | 0.23 | 68 | 1010.8 |
| 20260508194001 | 24 | 190 | 1.6 | 12.9 | 0.00 | 0.23 | 0.23 | 66 | 1010.9 |
| 20260508193503 | 24 | 206 | 3.2 | 16.1 | 0.00 | 0.23 | 0.23 | 66 | 1010.9 |
| 20260508193004 | 25 | 200 | 3.2 | 16.1 | 0.00 | 0.23 | 0.23 | 65 | 1010.9 |
| 20260508192501 | 25 | 218 | 1.6 | 11.3 | 0.00 | 0.23 | 0.23 | 66 | 1010.9 |
| 20260508191505 | 25 | 211 | 1.6 | 14.5 | 0.00 | 0.23 | 0.23 | 64 | 1010.9 |
| 20260508191001 | 25 | 207 | 3.2 | 16.1 | 0.00 | 0.23 | 0.23 | 63 | 1010.9 |
| 20260508190501 | 25 | 238 | 4.8 | 16.1 | 0.00 | 0.23 | 0.23 | 61 | 1011.0 |
| 20260508190014 | 26 | 164 | 1.6 | 6.4 | 0.00 | 0.23 | 0.23 | 60 | 1011.0 |
| 20260508185501 | 26 | 128 | 1.6 | 12.9 | 0.00 | 0.23 | 0.23 | 60 | 1011.1 |
| 20260508185001 | 26 | 210 | 3.2 | 12.9 | 0.00 | 0.23 | 0.23 | 61 | 1011.1 |
| 20260508184504 | 26 | 199 | 0.0 | 4.8 | 0.00 | 0.23 | 0.23 | 59 | 1011.2 |
| 20260508184003 | 26 | 208 | 0.0 | 1.6 | 0.00 | 0.23 | 0.23 | 61 | 1011.2 |
| 20260508183500 | 25 | 208 | 0.0 | 11.3 | 0.00 | 0.23 | 0.23 | 65 | 1011.3 |
| 20260508183004 | 24 | 208 | 1.6 | 14.5 | 0.00 | 0.23 | 0.23 | 66 | 1011.4 |
| 20260508182500 | 24 | 272 | 3.2 | 14.5 | 0.00 | 0.23 | 0.23 | 64 | 1011.5 |
| 20260508181000 | 23 | 191 | 4.8 | 19.3 | 0.00 | 0.23 | 0.23 | 66 | 1011.8 |
| 20260508180500 | 23 | 249 | 8.0 | 14.5 | 0.00 | 0.23 | 0.23 | 64 | 1011.9 |
| 20260508180006 | 24 | 211 | 4.8 | 14.5 | 0.00 | 0.23 | 0.23 | 64 | 1011.9 |
| 20260508175500 | 24 | 210 | 4.8 | 12.9 | 0.00 | 0.23 | 0.23 | 63 | 1012.1 |
| 20260508175000 | 24 | 242 | 4.8 | 14.5 | 0.00 | 0.23 | 0.23 | 63 | 1012.2 |
| 20260508174504 | 24 | 146 | 0.0 | 4.8 | 0.00 | 0.23 | 0.23 | 64 | 1012.3 |
| 20260508173501 | 24 | 121 | 0.0 | 9.7 | 0.00 | 0.23 | 0.23 | 63 | 1012.4 |
| 20260508172500 | 24 | 211 | 0.0 | 3.2 | 0.00 | 0.23 | 0.23 | 66 | 1012.3 |
| 20260508172000 | 23 | 203 | 0.0 | 14.5 | 0.00 | 0.23 | 0.23 | 63 | 1012.4 |
| 20260508171504 | 23 | 214 | 1.6 | 14.5 | 0.00 | 0.23 | 0.23 | 66 | 1012.5 |
| 20260508171000 | 23 | 220 | 3.2 | 9.7 | 0.00 | 0.23 | 0.23 | 64 | 1012.7 |
| 20260508170500 | 23 | 99 | 1.6 | 6.4 | 0.00 | 0.23 | 0.23 | 65 | 1012.7 |
| 20260508170006 | 22 | 85 | 0.0 | 8.0 | 0.00 | 0.23 | 0.23 | 65 | 1012.8 |
| 20260508165501 | 22 | 221 | 1.6 | 8.0 | 0.00 | 0.23 | 0.23 | 68 | 1013.2 |
| 20260508165001 | 22 | 172 | 0.0 | 14.5 | 0.00 | 0.23 | 0.23 | 68 | 1013.4 |
| 20260508164505 | 22 | 215 | 4.8 | 14.5 | 0.00 | 0.23 | 0.23 | 68 | 1013.4 |
| 20260508163500 | 21 | 165 | 3.2 | 11.3 | 0.00 | 0.23 | 0.23 | 70 | 1013.7 |
| 20260508163004 | 20 | 203 | 1.6 | 9.7 | 0.00 | 0.23 | 0.23 | 74 | 1013.7 |
| 20260508162500 | 20 | 229 | 0.0 | 3.2 | 0.00 | 0.23 | 0.23 | 76 | 1013.8 |
| 20260508162000 | 20 | 188 | 0.0 | 3.2 | 0.00 | 0.23 | 0.23 | 76 | 1013.9 |
| 20260508161505 | 20 | 188 | 0.0 | 3.2 | 0.00 | 0.23 | 0.23 | 76 | 1013.9 |
| 20260508161001 | 20 | 167 | 0.0 | 4.8 | 0.03 | 0.23 | 0.23 | 77 | 1013.9 |
| 20260508160500 | 19 | 163 | 0.0 | 4.8 | 0.15 | 0.23 | 0.23 | 77 | 1014.0 |
| 20260508160006 | 19 | 167 | 0.0 | 0.0 | 0.15 | 0.23 | 0.23 | 78 | 1014.0 |
| 20260508155500 | 20 | 196 | 0.0 | 0.0 | 0.18 | 0.23 | 0.23 | 81 | 1014.1 |
| 20260508155000 | 19 | 196 | 0.0 | 0.0 | 0.18 | 0.23 | 0.23 | 81 | 1014.2 |
| 20260508154504 | 18 | 196 | 0.0 | 0.0 | 0.18 | 0.23 | 0.23 | 82 | 1014.3 |
| 20260508154000 | 18 | 196 | 0.0 | 1.6 | 0.18 | 0.23 | 0.23 | 83 | 1014.3 |
| 20260508153501 | 18 | 196 | 0.0 | 1.6 | 0.18 | 0.23 | 0.23 | 82 | 1014.4 |
| 20260508153004 | 18 | 186 | 0.0 | 0.0 | 0.18 | 0.23 | 0.23 | 86 | 1014.3 |
| 20260508151504 | 18 | 162 | 0.0 | 0.0 | 0.18 | 0.23 | 0.23 | 82 | 1014.4 |
| 20260508151000 | 18 | 161 | 0.0 | 4.8 | 0.15 | 0.20 | 0.20 | 80 | 1014.4 |
| 20260508150500 | 18 | 161 | 0.0 | 9.7 | 0.03 | 0.08 | 0.08 | 76 | 1014.5 |
| 20260508150007 | 19 | 229 | 0.0 | 9.7 | 0.00 | 0.05 | 0.05 | 76 | 1015.0 |
| 20260508145500 | 19 | 175 | 0.0 | 0.0 | 0.00 | 0.05 | 0.05 | 76 | 1014.6 |
| 20260508145000 | 20 | 175 | 0.0 | 0.0 | 0.00 | 0.05 | 0.05 | 74 | 1014.5 |
| 20260508144504 | 20 | 175 | 0.0 | 0.0 | 0.00 | 0.05 | 0.05 | 74 | 1014.5 |
| 20260508144000 | 20 | 157 | 0.0 | 0.0 | 0.00 | 0.05 | 0.05 | 74 | 1014.7 |
| 20260508143500 | 20 | 157 | 0.0 | 0.0 | 0.00 | 0.05 | 0.05 | 74 | 1014.7 |
| 20260508142500 | 18 | 156 | 0.0 | 0.0 | 0.00 | 0.05 | 0.05 | 79 | 1014.8 |
| 20260508141504 | 18 | 157 | 0.0 | 0.0 | 0.00 | 0.05 | 0.05 | 80 | 1015.2 |
| 20260508141000 | 18 | 156 | 0.0 | 0.0 | 0.00 | 0.05 | 0.05 | 78 | 1015.2 |
| 20260508140500 | 18 | 119 | 0.0 | 0.0 | 0.00 | 0.05 | 0.05 | 78 | 1015.0 |
| 20260508140005 | 18 | 109 | 0.0 | 0.0 | 0.00 | 0.05 | 0.05 | 77 | 1014.8 |
| 20260508135459 | 18 | 101 | 0.0 | 3.2 | 0.00 | 0.05 | 0.05 | 77 | 1014.9 |
| 20260508135000 | 18 | 99 | 0.0 | 3.2 | 0.00 | 0.05 | 0.05 | 79 | 1014.7 |
| 20260508134502 | 17 | 215 | 0.0 | 0.0 | 0.00 | 0.05 | 0.05 | 83 | 1014.9 |
| 20260508133959 | 17 | 215 | 0.0 | 0.0 | 0.00 | 0.05 | 0.05 | 83 | 1014.8 |
| 20260508132459 | 17 | 215 | 0.0 | 0.0 | 0.00 | 0.05 | 0.05 | 84 | 1015.0 |
| 20260508131959 | 17 | 215 | 0.0 | 0.0 | 0.00 | 0.05 | 0.05 | 85 | 1014.7 |
| 20260508131504 | 17 | 215 | 0.0 | 6.4 | 0.00 | 0.05 | 0.05 | 85 | 1014.7 |
| 20260508131000 | 17 | 215 | 0.0 | 8.0 | 0.00 | 0.05 | 0.05 | 86 | 1014.9 |
| 20260508130459 | 17 | 185 | 0.0 | 3.2 | 0.00 | 0.05 | 0.05 | 87 | 1014.8 |
| 20260508130005 | 17 | 185 | 0.0 | 3.2 | 0.00 | 0.05 | 0.05 | 88 | 1014.8 |
| 20260508125501 | 16 | 184 | 0.0 | 3.2 | 0.00 | 0.05 | 0.05 | 88 | 1014.7 |
| 20260508124959 | 16 | 152 | 0.0 | 0.0 | 0.00 | 0.05 | 0.05 | 89 | 1014.7 |
| 20260508124503 | 16 | 152 | 0.0 | 1.6 | 0.00 | 0.05 | 0.05 | 89 | 1014.6 |